Ararat, Virginia
Current Conditions -  °F | °C
As of 3:35 PM on Tuesday 27 Jan 2015 (Local Time) from KMWK Reporting Station
Clear Clear  
Wind Chill: 37°   Ceiling: Unl
Heat Index: 43°   Visibility: 10mi
Dew Point: -1°   Wind: 10mph
Humidity: 16%   Direction: 320°NW
Pressure: 29.84"   Gusts: 18mph
Location:  36.6°N, 80.51°W
Report Text: KMWK 272035Z AUTO 32009G16KT 10SM CLR 06/M18 A2984 RMK AO2 T00601183
Loading
Personal Weather Stations






























Interactive Weather Map New forecast layout! Learn more

10-Day Weather Forecast

Advertisements
Track Severe Weather on mobile